33TE weather

Sw Police Station Nr 4 Heliport
Houston, Texas, United States

Public forecast

Using degrees Fahrenheit for public forecast. Weather courtesy of forecast.io.

METAR (pilot weather report)

Closest report is William P Hobby Airport, 9.4 nm (17.4 km) ESE. Retrieved 2019/07/23 02:53 UTC (1 hour ago):

KHOU 230253Z 18006KT 10SM SCT200 BKN250 28/24 A2996 RMK AO2 SLP148 T02780239 53008 $

TAF (pilot weather forecast)

Forecast is more than 12 hours old.

Closest forecast is William P Hobby Airport, 9.4 nm (17.4 km) ESE. Retrieved 2019/07/22 00:36 UTC (1 day ago):

TAF KHOU 222334Z 2300/2324 19006KT P6SM FEW025 SCT090 BKN250 FM230300 23006KT P6SM FEW030 BKN250 FM230600 33005KT P6SM VCSH SCT025 SCT060 BKN250 TEMPO 2310/2313 36007KT -SHRA BKN035 OVC100 FM231500 36010KT P6SM SCT035 BKN250 FM231800 02011KT P6SM FEW050 SCT250